createdAt,value
2018-04-14T00:00:32.112Z,78.80
2018-04-14T00:02:59.191Z,78.90
2018-04-14T00:05:25.484Z,78.90
2018-04-14T00:07:52.502Z,78.90
2018-04-14T00:10:18.882Z,78.70
2018-04-14T00:12:45.150Z,79.50
2018-04-14T00:15:11.502Z,78.80
2018-04-14T00:17:37.766Z,78.90
2018-04-14T00:20:04.143Z,78.50
2018-04-14T00:22:30.438Z,78.20
2018-04-14T00:24:56.724Z,78.80
2018-04-14T00:27:23.007Z,78.90
2018-04-14T00:29:49.335Z,80.10
2018-04-14T00:32:15.674Z,79.80
2018-04-14T00:34:41.970Z,79.20
2018-04-14T00:37:08.253Z,80.00
2018-04-14T00:39:34.596Z,80.10
2018-04-14T00:42:00.939Z,80.10
2018-04-14T00:44:27.929Z,81.40
2018-04-14T00:46:54.182Z,81.30
2018-04-14T00:49:20.480Z,80.70
2018-04-14T00:51:47.491Z,79.70
2018-04-14T00:54:13.941Z,79.70
2018-04-14T00:56:40.361Z,79.90
2018-04-14T00:59:06.667Z,81.40
2018-04-14T01:01:33.708Z,81.70
2018-04-14T01:03:59.972Z,81.70
2018-04-14T01:06:27.012Z,79.20
2018-04-14T01:08:53.248Z,79.10
2018-04-14T01:11:21.400Z,79.90
2018-04-14T01:13:47.661Z,79.20
2018-04-14T01:16:14.055Z,79.70
2018-04-14T01:18:40.360Z,79.70
2018-04-14T01:21:06.715Z,78.80
2018-04-14T01:23:33.207Z,79.10
2018-04-14T01:25:59.478Z,79.50
2018-04-14T01:28:25.765Z,79.20
2018-04-14T01:30:53.059Z,79.50
2018-04-14T01:33:19.350Z,79.30
2018-04-14T01:35:45.711Z,79.60
2018-04-14T01:38:12.751Z,80.00
2018-04-14T01:40:39.065Z,80.00
2018-04-14T01:43:05.425Z,79.60
2018-04-14T01:45:33.042Z,79.20
2018-04-14T01:47:59.352Z,78.80
2018-04-14T01:50:25.628Z,79.20
2018-04-14T01:52:52.641Z,81.10
2018-04-14T01:55:18.958Z,82.20
2018-04-14T01:57:45.278Z,81.10
2018-04-14T02:00:12.300Z,82.40
2018-04-14T02:02:38.620Z,82.50
2018-04-14T02:05:04.966Z,82.40
2018-04-14T02:07:31.299Z,82.50
2018-04-14T02:09:57.588Z,80.30
2018-04-14T02:12:23.844Z,80.10
2018-04-14T02:14:50.908Z,79.80
2018-04-14T02:17:18.031Z,79.70
2018-04-14T02:19:44.327Z,79.70
2018-04-14T02:22:10.683Z,81.40
2018-04-14T02:24:37.019Z,80.40
2018-04-14T02:27:03.498Z,79.40
2018-04-14T02:29:29.856Z,79.40
2018-04-14T02:31:56.198Z,79.80
2018-04-14T02:34:22.575Z,81.10
2018-04-14T02:36:49.591Z,82.20
2018-04-14T02:39:15.904Z,82.10
2018-04-14T02:41:42.211Z,82.20
2018-04-14T02:44:08.587Z,82.40
2018-04-14T02:46:35.043Z,82.30
2018-04-14T02:49:01.387Z,82.20
2018-04-14T02:51:27.657Z,82.30
2018-04-14T02:53:54.086Z,81.10
2018-04-14T02:56:20.335Z,79.10
2018-04-14T02:58:46.622Z,79.10
2018-04-14T03:01:12.952Z,78.60
2018-04-14T03:03:39.222Z,79.50
2018-04-14T03:06:05.605Z,78.70
2018-04-14T03:08:32.750Z,79.90
2018-04-14T03:10:59.073Z,79.90
2018-04-14T03:13:25.443Z,80.00
2018-04-14T03:15:55.019Z,78.50
2018-04-14T03:18:21.293Z,78.10
2018-04-14T03:20:47.596Z,79.00
2018-04-14T03:23:13.952Z,79.40
2018-04-14T03:25:41.004Z,80.70
2018-04-14T03:28:07.365Z,80.70
2018-04-14T03:30:34.390Z,79.90
2018-04-14T03:33:00.704Z,79.90
2018-04-14T03:35:26.969Z,80.20
2018-04-14T03:37:53.292Z,77.90
2018-04-14T03:40:19.609Z,78.10
2018-04-14T03:42:45.931Z,79.20
2018-04-14T03:45:12.997Z,79.40
2018-04-14T03:47:40.108Z,78.60
2018-04-14T03:50:07.226Z,78.40
2018-04-14T03:52:33.548Z,78.40
2018-04-14T03:55:00.616Z,79.70
2018-04-14T03:57:27.696Z,79.10
2018-04-14T03:59:54.803Z,79.80
2018-04-14T04:02:21.123Z,79.80
2018-04-14T04:04:47.379Z,79.20
2018-04-14T04:07:13.661Z,77.20
2018-04-14T04:09:40.521Z,78.10
2018-04-14T04:12:07.581Z,75.60
2018-04-14T04:14:34.831Z,75.20
2018-04-14T04:17:01.898Z,75.30
2018-04-14T04:19:40.404Z,75.20
2018-04-14T04:22:19.772Z,73.60
2018-04-14T04:27:50.875Z,73.30
2018-04-14T04:30:17.062Z,73.20
2018-04-14T04:32:43.231Z,72.50
2018-04-14T04:35:09.443Z,73.40
2018-04-14T04:37:35.799Z,74.30
2018-04-14T04:40:02.013Z,72.70
2018-04-14T04:42:28.205Z,72.10
2018-04-14T04:44:54.381Z,72.70
2018-04-14T04:47:21.321Z,75.40
2018-04-14T04:49:51.968Z,75.40
2018-04-14T04:52:19.342Z,76.10
2018-04-14T04:54:46.262Z,76.20
2018-04-14T04:57:13.212Z,76.00
2018-04-14T04:59:39.449Z,76.00
2018-04-14T05:02:05.742Z,78.30
2018-04-14T05:04:31.948Z,77.80
2018-04-14T05:06:58.104Z,78.80
2018-04-14T05:09:25.258Z,78.30
2018-04-14T05:11:51.379Z,76.00
2018-04-14T05:14:19.178Z,75.40
2018-04-14T05:16:45.354Z,75.10
2018-04-14T05:19:12.271Z,76.20
2018-04-14T05:21:38.458Z,76.20
2018-04-14T05:24:04.704Z,76.90
2018-04-14T05:26:31.385Z,77.70
2018-04-14T05:28:57.579Z,75.00
2018-04-14T05:31:24.482Z,76.80
2018-04-14T05:33:50.627Z,76.80
2018-04-14T05:36:16.870Z,76.40
2018-04-14T05:38:43.556Z,77.10
2018-04-14T05:41:10.497Z,77.80
2018-04-14T05:43:36.680Z,77.60
2018-04-14T05:46:04.287Z,77.90
2018-04-14T05:48:30.487Z,79.00
2018-04-14T05:50:56.675Z,77.90
2018-04-14T05:53:22.785Z,76.50
2018-04-14T05:55:49.010Z,77.20
2018-04-14T05:58:15.189Z,77.30
2018-04-14T06:00:41.418Z,74.90
2018-04-14T06:03:07.664Z,73.20
2018-04-14T06:05:34.794Z,73.70
2018-04-14T06:08:00.972Z,73.70
2018-04-14T06:10:27.121Z,71.60
2018-04-14T06:12:53.337Z,70.50
2018-04-14T06:15:19.528Z,70.00
2018-04-14T06:17:46.603Z,65.40
2018-04-14T06:20:12.893Z,65.30
2018-04-14T06:22:40.737Z,63.60
2018-04-14T06:25:07.074Z,61.60
2018-04-14T06:27:33.424Z,60.50
2018-04-14T06:30:00.452Z,57.80
2018-04-14T06:32:27.507Z,55.00
2018-04-14T06:34:54.523Z,52.30
2018-04-14T06:37:33.807Z,52.30
2018-04-14T06:40:00.893Z,50.50
2018-04-14T06:42:27.213Z,50.40
2018-04-14T06:44:53.546Z,49.40
2018-04-14T06:47:19.838Z,47.70
2018-04-14T06:49:46.160Z,47.30
2018-04-14T06:52:12.486Z,46.60
2018-04-14T06:54:39.491Z,45.20
2018-04-14T06:57:05.790Z,44.70
2018-04-14T06:59:32.812Z,46.80
2018-04-14T07:01:59.069Z,46.80
2018-04-14T07:04:25.822Z,48.40
2018-04-14T07:06:52.036Z,49.60
2018-04-14T07:09:19.503Z,48.50
2018-04-14T07:11:45.788Z,46.80
2018-04-14T07:14:12.109Z,45.70
2018-04-14T07:16:38.411Z,45.20
2018-04-14T07:19:04.747Z,44.30
2018-04-14T07:21:31.003Z,44.20
2018-04-14T07:23:57.330Z,43.40
2018-04-14T07:26:23.596Z,44.10
2018-04-14T07:28:49.892Z,44.20
2018-04-14T07:31:16.944Z,43.60
2018-04-14T07:33:43.291Z,43.30
2018-04-14T07:36:11.127Z,44.20
2018-04-14T07:38:37.441Z,44.20
2018-04-14T07:41:03.916Z,44.40
2018-04-14T07:43:30.246Z,45.40
2018-04-14T07:45:56.565Z,44.80
2018-04-14T07:48:23.582Z,47.90
2018-04-14T07:50:49.859Z,47.70
2018-04-14T07:53:16.856Z,47.60
2018-04-14T07:55:43.197Z,47.50
2018-04-14T07:58:09.590Z,47.90
2018-04-14T08:00:36.013Z,47.30
2018-04-14T08:03:02.336Z,47.50
2018-04-14T08:05:28.620Z,47.40
2018-04-14T08:07:54.905Z,48.20
2018-04-14T08:10:21.142Z,48.70
2018-04-14T08:12:47.405Z,48.10
2018-04-14T08:15:13.836Z,47.70
2018-04-14T08:17:40.311Z,47.70
2018-04-14T08:20:06.817Z,48.50
2018-04-14T08:22:33.278Z,49.00
2018-04-14T08:25:00.393Z,50.20
2018-04-14T08:27:26.795Z,50.10
2018-04-14T08:29:53.060Z,50.40
2018-04-14T08:32:20.056Z,49.80
2018-04-14T08:34:47.264Z,51.20
2018-04-14T08:37:13.595Z,51.10
2018-04-14T08:39:40.586Z,50.20
2018-04-14T08:42:07.571Z,50.20
2018-04-14T08:44:34.743Z,48.00
2018-04-14T08:47:01.780Z,47.80
2018-04-14T08:49:28.105Z,47.60
2018-04-14T08:51:55.090Z,46.60
2018-04-14T08:54:21.403Z,46.60
2018-04-14T08:56:47.649Z,46.90
2018-04-14T08:59:13.898Z,47.30
2018-04-14T09:01:40.252Z,47.20
2018-04-14T09:04:06.590Z,46.80
2018-04-14T09:06:32.965Z,47.80
2018-04-14T09:08:59.979Z,47.90
2018-04-14T09:11:26.269Z,47.80
2018-04-14T09:13:52.614Z,47.40
2018-04-14T09:16:18.876Z,47.50
2018-04-14T09:18:45.155Z,48.10
2018-04-14T09:21:11.452Z,48.00
2018-04-14T09:23:37.740Z,47.90
2018-04-14T09:26:04.137Z,47.40
2018-04-14T09:28:30.684Z,47.80
2018-04-14T09:30:56.952Z,47.50
2018-04-14T09:33:23.197Z,47.60
2018-04-14T09:35:50.198Z,47.30
2018-04-14T09:38:16.672Z,47.30
2018-04-14T09:41:04.119Z,47.70
2018-04-14T09:43:30.451Z,48.30
2018-04-14T09:45:57.594Z,47.10
2018-04-14T09:48:24.590Z,46.20
2018-04-14T09:50:50.965Z,46.20
2018-04-14T09:53:17.250Z,46.90
2018-04-14T09:55:44.293Z,46.90
2018-04-14T09:58:14.435Z,46.20
2018-04-14T10:00:55.648Z,45.10
2018-04-14T10:03:25.021Z,45.00
2018-04-14T10:05:51.468Z,45.10
2018-04-14T10:08:28.530Z,46.30
2018-04-14T10:10:54.993Z,45.90
2018-04-14T10:13:21.289Z,44.70
2018-04-14T10:18:33.740Z,44.50
2018-04-14T10:21:00.794Z,43.60
2018-04-14T10:23:27.767Z,43.70
2018-04-14T10:25:54.057Z,43.70
2018-04-14T10:28:20.394Z,45.00
2018-04-14T10:30:46.844Z,44.30
2018-04-14T10:33:13.389Z,43.70
2018-04-14T10:35:40.542Z,44.10
2018-04-14T10:38:06.999Z,44.10
2018-04-14T10:40:33.343Z,44.10
2018-04-14T10:42:59.657Z,43.50
2018-04-14T10:45:25.970Z,43.70
2018-04-14T10:47:52.272Z,43.00
2018-04-14T10:50:19.346Z,44.00
2018-04-14T10:52:45.748Z,44.00
2018-04-14T10:55:12.061Z,41.90
2018-04-14T10:57:38.480Z,43.40
2018-04-14T11:00:04.844Z,40.10
2018-04-14T11:02:31.935Z,41.30
2018-04-14T11:04:58.468Z,41.30
2018-04-14T11:07:25.647Z,39.80
2018-04-14T11:09:51.956Z,39.80
2018-04-14T11:12:19.018Z,38.50
2018-04-14T11:14:45.316Z,38.50
2018-04-14T11:17:11.723Z,39.10
2018-04-14T11:19:39.961Z,39.80
2018-04-14T11:22:06.407Z,39.70
2018-04-14T11:24:32.775Z,39.00
2018-04-14T11:26:59.964Z,38.10
2018-04-14T11:29:26.999Z,38.40
2018-04-14T11:31:54.320Z,38.30
2018-04-14T11:34:20.620Z,38.10
2018-04-14T11:36:47.696Z,37.70
2018-04-14T11:39:14.868Z,39.20
2018-04-14T11:41:42.401Z,39.20
2018-04-14T11:44:09.007Z,37.80
2018-04-14T11:46:36.562Z,39.20
2018-04-14T11:49:03.096Z,38.50
2018-04-14T11:51:29.594Z,37.80
2018-04-14T11:53:56.762Z,38.80
2018-04-14T11:56:23.251Z,38.20
2018-04-14T11:58:50.361Z,37.90
2018-04-14T12:01:16.720Z,37.80
2018-04-14T12:03:43.037Z,37.90
2018-04-14T12:06:09.472Z,39.00
2018-04-14T12:08:36.282Z,38.00
2018-04-14T12:11:28.717Z,38.10
2018-04-14T12:13:55.907Z,37.90
2018-04-14T12:16:29.285Z,38.00
2018-04-14T12:18:55.633Z,39.10
2018-04-14T12:21:22.140Z,40.20
2018-04-14T12:23:48.552Z,39.30
2018-04-14T12:26:14.961Z,39.80
2018-04-14T12:28:41.311Z,40.90
2018-04-14T12:31:07.709Z,41.30
2018-04-14T12:33:34.838Z,41.10
2018-04-14T12:36:01.198Z,41.10
2018-04-14T12:38:27.476Z,41.00
2018-04-14T12:40:57.289Z,39.00
2018-04-14T12:43:23.642Z,37.70
2018-04-14T12:45:50.267Z,37.80
2018-04-14T12:48:16.628Z,37.90
2018-04-14T12:50:42.895Z,35.70
2018-04-14T12:53:09.239Z,36.30
2018-04-14T12:55:35.463Z,35.10
2018-04-14T12:58:06.927Z,36.80
2018-04-14T13:00:33.927Z,37.00
2018-04-14T13:03:00.264Z,36.80
2018-04-14T13:05:26.526Z,37.30
2018-04-14T13:07:52.860Z,37.60
2018-04-14T13:10:19.225Z,35.90
2018-04-14T13:12:45.483Z,36.00
2018-04-14T13:15:11.828Z,35.90
2018-04-14T13:17:39.176Z,34.80
2018-04-14T13:20:06.293Z,35.60
2018-04-14T13:22:32.623Z,35.50
2018-04-14T13:24:59.014Z,36.60
2018-04-14T13:27:25.315Z,36.30
2018-04-14T13:29:51.628Z,35.90
2018-04-14T13:32:18.847Z,35.70
2018-04-14T13:34:45.377Z,35.70
2018-04-14T13:37:22.335Z,36.40
2018-04-14T13:39:48.692Z,35.90
2018-04-14T13:42:15.160Z,35.40
2018-04-14T13:44:41.471Z,35.30
2018-04-14T13:47:07.963Z,35.40
2018-04-14T13:49:34.269Z,35.10
2018-04-14T13:52:01.012Z,35.40
2018-04-14T13:54:27.442Z,36.10
2018-04-14T13:56:54.496Z,36.90
2018-04-14T13:59:21.596Z,37.10
2018-04-14T14:01:47.868Z,37.00
2018-04-14T14:04:14.237Z,36.80
2018-04-14T14:06:40.637Z,37.10
2018-04-14T14:09:06.994Z,36.70
2018-04-14T14:11:33.449Z,36.20
2018-04-14T14:13:59.774Z,35.40
2018-04-14T14:16:26.103Z,32.90
2018-04-14T14:18:56.261Z,33.70
2018-04-14T14:21:22.566Z,33.20
2018-04-14T14:23:48.937Z,34.20
2018-04-14T14:26:15.983Z,34.10
2018-04-14T14:28:42.643Z,34.20
2018-04-14T14:31:09.059Z,33.50
2018-04-14T14:33:36.107Z,33.10
2018-04-14T14:36:02.407Z,33.10
2018-04-14T14:38:28.634Z,33.70
2018-04-14T14:40:54.938Z,34.20
2018-04-14T14:43:44.951Z,34.60
2018-04-14T14:46:12.175Z,37.20
2018-04-14T14:48:39.404Z,35.90
2018-04-14T14:51:05.834Z,35.90
2018-04-14T14:53:32.214Z,35.90
2018-04-14T14:55:58.522Z,36.20
2018-04-14T14:58:24.852Z,36.80
2018-04-14T15:00:51.252Z,36.20
2018-04-14T15:03:18.274Z,36.50
2018-04-14T15:05:45.622Z,36.30
2018-04-14T15:08:12.823Z,36.50
2018-04-14T15:10:39.896Z,36.20
2018-04-14T15:13:06.254Z,36.10
2018-04-14T15:15:32.520Z,35.00
2018-04-14T15:17:58.842Z,33.50
2018-04-14T15:20:26.057Z,35.20
2018-04-14T15:22:52.984Z,35.30
2018-04-14T15:25:20.080Z,32.30
2018-04-14T15:27:46.367Z,32.20
2018-04-14T15:30:12.799Z,32.50
2018-04-14T15:32:39.144Z,30.80
2018-04-14T15:35:05.539Z,30.30
2018-04-14T15:37:31.954Z,30.90
2018-04-14T15:40:01.871Z,32.10
2018-04-14T15:42:28.201Z,32.80
2018-04-14T15:44:54.500Z,32.20
2018-04-14T15:47:20.933Z,33.10
2018-04-14T15:49:47.219Z,33.50
2018-04-14T15:52:13.564Z,33.70
2018-04-14T15:54:39.887Z,34.40
2018-04-14T15:57:07.060Z,33.50
2018-04-14T15:59:33.496Z,32.80
2018-04-14T16:01:59.871Z,34.10
2018-04-14T16:04:26.200Z,33.90
2018-04-14T16:06:57.281Z,33.30
2018-04-14T16:09:23.574Z,34.10
2018-04-14T16:11:49.843Z,34.10
2018-04-14T16:14:34.893Z,33.80
2018-04-14T16:17:01.237Z,34.30
2018-04-14T16:19:28.323Z,36.20
2018-04-14T16:21:54.710Z,36.10
2018-04-14T16:24:21.736Z,34.80
2018-04-14T16:26:48.033Z,34.80
2018-04-14T16:29:15.050Z,35.80
2018-04-14T16:31:41.404Z,35.70
2018-04-14T16:34:07.695Z,35.70
2018-04-14T16:36:34.216Z,36.10
2018-04-14T16:39:01.298Z,36.90
2018-04-14T16:41:27.655Z,36.90
2018-04-14T16:43:54.039Z,38.10
2018-04-14T16:46:20.386Z,38.00
2018-04-14T16:48:48.002Z,37.10
2018-04-14T16:51:15.093Z,37.40
2018-04-14T16:53:41.520Z,37.40
2018-04-14T16:56:08.085Z,37.00
2018-04-14T16:58:35.220Z,36.80
2018-04-14T17:01:01.836Z,38.00
2018-04-14T17:03:28.784Z,37.70
2018-04-14T17:05:55.216Z,38.40
2018-04-14T17:08:21.630Z,38.30
2018-04-14T17:10:48.316Z,38.20
2018-04-14T17:13:14.968Z,38.50
2018-04-14T17:15:58.452Z,38.80
2018-04-14T17:18:25.020Z,39.40
2018-04-14T17:20:52.983Z,39.30
2018-04-14T17:23:19.478Z,39.30
2018-04-14T17:25:46.742Z,39.90
2018-04-14T17:28:13.159Z,39.90
2018-04-14T17:30:40.097Z,40.70
2018-04-14T17:33:07.724Z,40.50
2018-04-14T17:35:35.395Z,40.50
2018-04-14T17:38:03.014Z,40.80
2018-04-14T17:40:29.627Z,41.70
2018-04-14T17:42:56.400Z,42.10
2018-04-14T17:45:23.046Z,42.00
2018-04-14T17:47:49.703Z,42.40
2018-04-14T17:50:16.065Z,42.70
2018-04-14T17:52:44.287Z,43.20
2018-04-14T17:55:15.178Z,43.20
2018-04-14T17:57:41.763Z,43.60
2018-04-14T18:00:08.331Z,44.20
2018-04-14T18:02:36.158Z,44.80
2018-04-14T18:05:02.675Z,46.40
2018-04-14T18:07:29.020Z,48.20
2018-04-14T18:09:55.570Z,48.10
2018-04-14T18:12:22.103Z,47.40
2018-04-14T18:14:49.030Z,48.40
2018-04-14T18:17:18.263Z,49.10
2018-04-14T18:19:45.920Z,49.10
2018-04-14T18:22:14.227Z,50.00
2018-04-14T18:24:41.468Z,50.00
2018-04-14T18:27:08.080Z,50.50
2018-04-14T18:29:35.656Z,50.70
2018-04-14T18:32:02.232Z,51.00
2018-04-14T18:34:28.828Z,51.20
2018-04-14T18:36:55.666Z,51.90
2018-04-14T18:39:21.983Z,52.20
2018-04-14T18:41:48.437Z,52.70
2018-04-14T18:44:15.039Z,53.20
2018-04-14T18:46:41.568Z,53.40
2018-04-14T18:49:08.451Z,53.60
2018-04-14T18:51:36.850Z,54.20
2018-04-14T18:54:05.312Z,54.10
2018-04-14T18:56:31.909Z,55.10
2018-04-14T18:58:59.334Z,56.10
2018-04-14T19:01:25.767Z,56.10
2018-04-14T19:03:52.137Z,56.70
2018-04-14T19:06:19.197Z,57.10
2018-04-14T19:08:45.596Z,57.00
2018-04-14T19:11:12.745Z,57.80
2018-04-14T19:13:39.330Z,57.80
2018-04-14T19:16:06.379Z,58.10
2018-04-14T19:18:34.734Z,59.20
2018-04-14T19:21:02.992Z,59.10
2018-04-14T19:23:29.596Z,59.40
2018-04-14T19:25:56.766Z,60.40
2018-04-14T19:28:23.149Z,60.40
2018-04-14T19:30:50.264Z,60.70
2018-04-14T19:33:17.529Z,61.10
2018-04-14T19:35:44.900Z,61.80
2018-04-14T19:38:12.372Z,61.70
2018-04-14T19:40:39.769Z,61.60
2018-04-14T19:43:06.631Z,61.60
2018-04-14T19:45:33.611Z,62.00
2018-04-14T19:48:00.588Z,62.60
2018-04-14T19:50:27.012Z,62.80
2018-04-14T19:52:58.301Z,63.20
2018-04-14T19:55:28.522Z,63.70
2018-04-14T19:57:55.789Z,64.50
2018-04-14T20:00:22.139Z,64.40
2018-04-14T20:02:48.501Z,63.70
2018-04-14T20:05:14.891Z,64.10
2018-04-14T20:07:41.377Z,64.80
2018-04-14T20:10:08.820Z,65.50
2018-04-14T20:12:35.810Z,65.50
2018-04-14T20:15:05.800Z,66.20
2018-04-14T20:17:33.229Z,66.70
2018-04-14T20:20:00.386Z,67.70
2018-04-14T20:22:29.619Z,67.70
2018-04-14T20:24:55.884Z,67.70
2018-04-14T20:27:22.943Z,68.20
2018-04-14T20:29:49.307Z,68.20
2018-04-14T20:32:17.166Z,67.90
2018-04-14T20:34:43.489Z,67.90
2018-04-14T20:37:10.078Z,68.00
2018-04-14T20:39:37.366Z,68.30
2018-04-14T20:42:05.942Z,68.50
2018-04-14T20:44:32.489Z,69.00
2018-04-14T20:46:58.880Z,69.10
2018-04-14T20:49:25.230Z,69.50
2018-04-14T20:51:51.693Z,70.20
2018-04-14T20:54:19.003Z,70.10
2018-04-14T20:56:45.403Z,70.10
2018-04-14T20:59:11.887Z,69.80
2018-04-14T21:01:39.062Z,69.90
2018-04-14T21:04:07.054Z,70.10
2018-04-14T21:06:33.602Z,70.10
2018-04-14T21:09:00.275Z,69.70
2018-04-14T21:11:26.749Z,69.40
2018-04-14T21:13:54.172Z,69.60
2018-04-14T21:16:22.414Z,70.00
2018-04-14T21:18:54.028Z,69.90
2018-04-14T21:21:21.209Z,70.60
2018-04-14T21:23:47.719Z,70.60
2018-04-14T21:26:14.135Z,71.10
2018-04-14T21:28:40.746Z,71.40
2018-04-14T21:31:07.689Z,71.90
2018-04-14T21:33:35.261Z,72.00
2018-04-14T21:36:02.138Z,72.10
2018-04-14T21:38:28.622Z,72.10
2018-04-14T21:40:55.774Z,72.40
2018-04-14T21:43:26.618Z,72.30
2018-04-14T21:45:53.093Z,72.40
2018-04-14T21:48:19.880Z,73.60
2018-04-14T21:50:51.685Z,74.50
2018-04-14T21:53:18.038Z,74.50
2018-04-14T21:55:44.444Z,74.40
2018-04-14T21:58:12.556Z,73.80
2018-04-14T22:00:38.965Z,73.90
2018-04-14T22:03:06.554Z,74.30
2018-04-14T22:05:32.947Z,74.30
2018-04-14T22:07:59.290Z,74.70
2018-04-14T22:10:25.584Z,74.60
2018-04-14T22:12:52.730Z,74.80
2018-04-14T22:15:19.772Z,74.40
2018-04-14T22:17:46.034Z,74.80
2018-04-14T22:20:13.324Z,74.70
2018-04-14T22:22:39.911Z,74.70
2018-04-14T22:25:09.675Z,74.80
2018-04-14T22:27:36.832Z,75.20
2018-04-14T22:30:03.922Z,75.10
2018-04-14T22:32:30.261Z,75.00
2018-04-14T22:34:57.678Z,75.30
2018-04-14T22:37:24.061Z,75.50
2018-04-14T22:39:51.113Z,75.80
2018-04-14T22:42:18.220Z,76.20
2018-04-14T22:44:44.545Z,76.10
2018-04-14T22:47:10.817Z,77.00
2018-04-14T22:49:37.294Z,76.30
2018-04-14T22:52:03.613Z,76.30
2018-04-14T22:54:29.928Z,76.40
2018-04-14T22:56:56.203Z,76.30
2018-04-14T22:59:22.526Z,76.40
2018-04-14T23:01:48.950Z,77.10
2018-04-14T23:04:15.245Z,77.10
2018-04-14T23:06:41.676Z,76.30
2018-04-14T23:09:08.033Z,75.80
2018-04-14T23:11:36.717Z,76.00
2018-04-14T23:14:03.111Z,76.10
2018-04-14T23:16:29.487Z,76.40
2018-04-14T23:18:55.838Z,77.00
2018-04-14T23:21:22.179Z,76.50
2018-04-14T23:23:49.650Z,76.70
2018-04-14T23:26:17.711Z,76.90
2018-04-14T23:28:44.028Z,75.80
2018-04-14T23:31:11.058Z,75.90
2018-04-14T23:33:37.326Z,76.60
2018-04-14T23:36:03.710Z,76.60
2018-04-14T23:38:31.100Z,77.20
2018-04-14T23:40:57.374Z,77.20
2018-04-14T23:43:24.511Z,77.90
2018-04-14T23:45:50.848Z,77.80
2018-04-14T23:48:17.177Z,77.80
2018-04-14T23:50:43.478Z,77.90
2018-04-14T23:53:10.570Z,77.70
2018-04-14T23:55:36.877Z,77.70
2018-04-14T23:58:04.070Z,77.80
